createdAt,value
2023-04-14T00:00:19.350Z,51.291435
2023-04-14T00:01:19.358Z,51.291451
2023-04-14T00:02:19.439Z,51.291031
2023-04-14T00:03:19.654Z,51.291180
2023-04-14T00:04:19.406Z,51.291088
2023-04-14T00:05:19.349Z,51.291080
2023-04-14T00:06:19.370Z,51.291100
2023-04-14T00:07:19.275Z,51.291164
2023-04-14T00:08:19.241Z,51.291195
2023-04-14T00:09:19.239Z,51.291222
2023-04-14T00:10:19.233Z,51.291168
2023-04-14T00:11:19.240Z,51.291157
2023-04-14T00:12:19.206Z,51.291168
2023-04-14T00:13:19.214Z,51.291233
2023-04-14T00:14:19.173Z,51.291092
2023-04-14T00:15:19.184Z,51.291187
2023-04-14T00:16:19.186Z,51.291225
2023-04-14T00:17:19.315Z,51.291019
2023-04-14T00:18:19.148Z,51.291046
2023-04-14T00:19:19.115Z,51.290989
2023-04-14T00:20:19.110Z,51.291100
2023-04-14T00:21:19.155Z,51.290932
2023-04-14T00:22:19.092Z,51.291195
2023-04-14T00:23:19.073Z,51.291466
2023-04-14T00:24:19.075Z,51.291084
2023-04-14T01:38:02.126Z,51.291477
2023-04-14T01:39:02.271Z,51.291176
2023-04-14T01:40:02.108Z,51.291225
2023-04-14T01:41:02.022Z,51.291187
2023-04-14T01:42:02.020Z,51.291271
2023-04-14T01:43:02.039Z,51.291180
2023-04-14T01:44:02.012Z,51.291245
2023-04-14T04:20:26.913Z,51.291183
2023-04-14T04:21:26.953Z,51.291183
2023-04-14T04:22:26.891Z,51.291183
2023-04-14T04:23:26.854Z,51.291183
2023-04-14T04:24:26.918Z,51.291183
2023-04-14T04:25:26.846Z,51.291183
2023-04-14T04:26:26.838Z,51.291183
2023-04-14T04:27:28.017Z,51.291309
2023-04-14T04:28:27.818Z,51.291355
2023-04-14T04:29:26.831Z,51.291359
2023-04-14T04:30:26.772Z,51.291397
2023-04-14T04:31:26.897Z,51.291443
2023-04-14T04:32:26.973Z,51.291405
2023-04-14T04:33:26.755Z,51.291420
2023-04-14T04:34:26.732Z,51.290920
2023-04-14T04:35:26.742Z,51.290939
2023-04-14T04:36:27.789Z,51.291313
2023-04-14T04:37:26.706Z,51.290760
2023-04-14T04:38:26.699Z,51.290730
2023-04-14T04:39:26.674Z,51.291466
2023-04-14T04:40:26.680Z,51.291672
2023-04-14T04:41:26.696Z,51.291893
2023-04-14T04:42:26.663Z,51.291306
2023-04-14T04:43:26.641Z,51.291225
2023-04-14T04:44:26.628Z,51.290916
2023-04-14T04:45:26.643Z,51.290981
2023-04-14T04:46:26.666Z,51.290916
2023-04-14T04:47:26.677Z,51.291016
2023-04-14T04:48:26.575Z,51.291317
2023-04-14T04:49:26.567Z,51.291748
2023-04-14T04:50:26.572Z,51.291824
2023-04-14T04:51:26.583Z,51.291538
2023-04-14T04:52:26.547Z,51.291477
2023-04-14T04:53:26.540Z,51.291248
2023-04-14T04:54:26.508Z,51.291454
2023-04-14T04:55:26.510Z,51.291359
2023-04-14T04:56:26.522Z,51.291309
2023-04-14T04:57:26.490Z,51.291660
2023-04-14T04:58:26.461Z,51.291374
2023-04-14T04:59:26.467Z,51.291233
2023-04-14T05:00:26.646Z,51.291130
2023-04-14T05:01:26.495Z,51.291199
2023-04-14T05:02:26.523Z,51.291241
2023-04-14T05:03:27.642Z,51.291477
2023-04-14T05:04:26.445Z,51.291321
2023-04-14T05:05:26.388Z,51.291340
2023-04-14T05:06:26.402Z,51.291351
2023-04-14T05:07:26.522Z,51.291348
2023-04-14T05:08:26.364Z,51.291206
2023-04-14T06:00:03.178Z,51.291374
2023-04-14T06:01:02.545Z,51.291241
2023-04-14T06:02:02.579Z,51.291210
2023-04-14T06:03:02.662Z,51.291245
2023-04-14T06:04:02.844Z,51.291153
2023-04-14T06:05:02.577Z,51.291199
2023-04-14T06:06:02.452Z,51.291245
2023-04-14T06:07:02.460Z,51.291248
2023-04-14T06:08:02.414Z,51.291260
2023-04-14T06:09:03.075Z,51.291237
2023-04-14T06:10:02.402Z,51.291199
2023-04-14T06:11:02.376Z,51.291199
2023-04-14T06:12:02.414Z,51.291153
2023-04-14T06:13:02.345Z,51.291191
2023-04-14T06:14:03.343Z,51.291187
2023-04-14T06:15:02.327Z,51.291199
2023-04-14T06:16:02.367Z,51.291267
2023-04-14T06:17:02.302Z,51.291271
2023-04-14T06:18:02.345Z,51.291241
2023-04-14T06:19:02.581Z,51.291222
2023-04-14T06:20:02.330Z,51.291225
2023-04-14T06:21:02.334Z,51.291210
2023-04-14T06:22:02.304Z,51.291225
2023-04-14T06:23:02.278Z,51.291187
2023-04-14T06:24:02.238Z,51.291203
2023-04-14T06:25:02.340Z,51.291225
2023-04-14T06:26:02.236Z,51.291237
2023-04-14T06:27:02.203Z,51.291233
2023-04-14T06:28:02.230Z,51.291237
2023-04-14T06:29:02.400Z,51.291161
2023-04-14T06:30:02.176Z,51.291225
2023-04-14T06:31:02.203Z,51.291218
2023-04-14T06:32:02.266Z,51.291264
2023-04-14T06:33:02.217Z,51.291233
2023-04-14T06:34:02.140Z,51.291260
2023-04-14T06:35:02.119Z,51.291271
2023-04-14T06:36:02.155Z,51.291180
2023-04-14T06:37:02.191Z,51.291138
2023-04-14T06:38:02.355Z,51.291210
2023-04-14T06:39:02.345Z,51.291214
2023-04-14T06:40:02.075Z,51.291245
2023-04-14T06:41:02.069Z,51.291203
2023-04-14T06:42:02.060Z,51.291153
2023-04-14T06:43:02.038Z,51.291115
2023-04-14T06:44:02.074Z,51.291145
2023-04-14T06:45:02.011Z,51.291145
2023-04-14T06:46:02.025Z,51.291180
2023-04-14T06:47:02.004Z,51.291119
2023-04-14T06:48:02.047Z,51.291203
2023-04-14T06:49:02.073Z,51.291145
2023-04-14T06:50:02.009Z,51.291195
2023-04-14T06:51:01.938Z,51.291203
2023-04-14T06:52:02.008Z,51.291176
2023-04-14T06:53:01.989Z,51.291195
2023-04-14T06:54:02.217Z,51.291229
2023-04-14T06:55:01.911Z,51.291111
2023-04-14T06:56:01.887Z,51.291084
2023-04-14T06:57:01.863Z,51.291229
2023-04-14T06:58:01.868Z,51.291088
2023-04-14T06:59:02.013Z,51.291088
2023-04-14T07:00:01.870Z,51.291069
2023-04-14T07:01:01.870Z,51.290966
2023-04-14T07:02:01.885Z,51.290974
2023-04-14T07:03:01.828Z,51.291077
2023-04-14T07:04:03.250Z,51.291458
2023-04-14T07:05:01.829Z,51.291439
2023-04-14T07:06:01.771Z,51.291409
2023-04-14T07:07:02.072Z,51.291214
2023-04-14T07:08:01.734Z,51.291016
2023-04-14T07:09:01.731Z,51.291134
2023-04-14T07:10:01.806Z,51.291126
2023-04-14T07:11:01.737Z,51.291210
2023-04-14T07:12:02.684Z,51.291172
2023-04-14T07:13:01.691Z,51.291233
2023-04-14T07:14:01.873Z,51.291412
2023-04-14T07:15:01.691Z,51.291218
2023-04-14T07:16:01.708Z,51.291248
2023-04-14T07:17:01.636Z,51.291153
2023-04-14T07:18:01.659Z,51.291279
2023-04-14T07:19:01.611Z,51.291195
2023-04-14T07:20:01.830Z,51.291069
2023-04-14T07:21:01.603Z,51.291164
2023-04-14T07:22:01.593Z,51.291225
2023-04-14T07:23:01.563Z,51.291157
2023-04-14T07:24:01.762Z,51.291164
2023-04-14T07:25:01.563Z,51.291218
2023-04-14T07:26:01.521Z,51.291199
2023-04-14T07:27:01.554Z,51.291214
2023-04-14T07:28:03.954Z,51.291149
2023-04-14T07:29:02.493Z,51.291096
2023-04-14T07:30:01.483Z,51.291016
2023-04-14T07:31:01.478Z,51.291218
2023-04-14T07:32:01.489Z,51.291157
2023-04-14T07:33:01.523Z,51.291286
2023-04-14T07:34:01.775Z,51.291382
2023-04-14T07:35:01.424Z,51.291283
2023-04-14T07:36:03.425Z,51.291187
2023-04-14T07:37:02.431Z,51.291130
2023-04-14T07:38:01.384Z,51.291187
2023-04-14T07:39:01.366Z,51.291218
2023-04-14T07:40:01.406Z,51.291203
2023-04-14T07:41:01.424Z,51.291107
2023-04-14T07:42:01.369Z,51.291145
2023-04-14T07:43:01.440Z,51.291191
2023-04-14T07:44:01.393Z,51.291260
2023-04-14T07:45:01.518Z,51.291187
2023-04-14T07:46:01.295Z,51.291256
2023-04-14T07:47:01.320Z,51.291157
2023-04-14T07:48:01.318Z,51.291157
2023-04-14T07:49:15.809Z,51.291157
2023-04-14T07:50:21.626Z,51.291134
2023-04-14T07:52:55.013Z,51.291092
2023-04-14T07:53:01.474Z,51.291092
2023-04-14T07:54:01.794Z,51.291077
2023-04-14T07:55:06.438Z,51.291145
2023-04-14T07:56:01.447Z,51.291229
2023-04-14T07:57:01.407Z,51.291172
2023-04-14T07:58:01.399Z,51.291168
2023-04-14T07:59:01.607Z,51.291107
2023-04-14T08:00:01.413Z,51.291134
2023-04-14T08:01:01.352Z,51.291134
2023-04-14T08:02:01.453Z,51.290977
2023-04-14T08:03:01.473Z,51.290977
2023-04-14T08:04:01.639Z,51.291073
2023-04-14T08:05:01.326Z,51.291119
2023-04-14T08:06:01.313Z,51.291290
2023-04-14T08:07:01.289Z,51.291370
2023-04-14T08:08:01.291Z,51.291199
2023-04-14T08:09:01.459Z,51.291103
2023-04-14T08:10:01.249Z,51.291100
2023-04-14T08:11:01.300Z,51.291100
2023-04-14T08:12:01.246Z,51.291046
2023-04-14T08:13:03.570Z,51.291031
2023-04-14T08:14:01.234Z,51.291195
2023-04-14T08:15:01.200Z,51.291271
2023-04-14T08:16:01.214Z,51.291290
2023-04-14T08:17:01.176Z,51.291065
2023-04-14T08:18:01.222Z,51.291130
2023-04-14T08:19:01.515Z,51.291096
2023-04-14T08:20:01.131Z,51.291149
2023-04-14T08:21:01.150Z,51.291153
2023-04-14T08:22:01.104Z,51.290951
2023-04-14T08:23:01.170Z,51.291039
2023-04-14T08:24:01.602Z,51.291061
2023-04-14T08:25:01.104Z,51.291054
2023-04-14T08:26:01.124Z,51.291042
2023-04-14T08:27:01.070Z,51.290970
2023-04-14T08:28:01.078Z,51.290977
2023-04-14T08:29:01.321Z,51.291027
2023-04-14T08:30:01.029Z,51.291122
2023-04-14T08:31:01.017Z,51.291080
2023-04-14T08:32:01.046Z,51.291065
2023-04-14T08:33:01.146Z,51.291172
2023-04-14T08:34:01.029Z,51.291012
2023-04-14T08:35:37.200Z,51.290977
2023-04-14T08:36:01.049Z,51.291008
2023-04-14T08:37:00.968Z,51.291183
2023-04-14T08:38:00.947Z,51.291328
2023-04-14T08:39:01.044Z,51.291210
2023-04-14T08:40:00.936Z,51.291157
2023-04-14T08:41:00.903Z,51.291145
2023-04-14T08:42:01.935Z,51.291027
2023-04-14T08:43:00.889Z,51.291233
2023-04-14T08:44:00.864Z,51.291130
2023-04-14T08:45:00.910Z,51.291405
2023-04-14T08:46:00.899Z,51.291687
2023-04-14T08:47:00.833Z,51.291878
2023-04-14T08:48:00.898Z,51.291767
2023-04-14T08:49:00.961Z,51.291466
2023-04-14T08:50:00.845Z,51.291203
2023-04-14T08:51:00.809Z,51.291180
2023-04-14T08:52:00.790Z,51.291080
2023-04-14T08:53:00.762Z,51.291012
2023-04-14T08:54:01.020Z,51.291035
2023-04-14T08:55:00.750Z,51.291119
2023-04-14T08:56:00.822Z,51.291088
2023-04-14T08:57:00.727Z,51.291149
2023-04-14T08:58:00.741Z,51.291325
2023-04-14T08:59:00.718Z,51.291275
2023-04-14T09:00:00.690Z,51.291382
2023-04-14T09:01:00.918Z,51.291401
2023-04-14T09:02:00.758Z,51.291412
2023-04-14T09:03:00.865Z,51.291145
2023-04-14T09:04:00.965Z,51.291283
2023-04-14T09:05:00.706Z,51.291309
2023-04-14T09:06:00.620Z,51.291355
2023-04-14T09:07:00.634Z,51.291401
2023-04-14T09:08:00.621Z,51.291428
2023-04-14T09:09:00.593Z,51.291363
2023-04-14T09:10:00.577Z,51.291290
2023-04-14T09:11:00.567Z,51.291031
2023-04-14T09:12:00.573Z,51.290974
2023-04-14T09:13:00.559Z,51.291080
2023-04-14T09:14:00.821Z,51.291073
2023-04-14T09:15:00.554Z,51.291183
2023-04-14T09:16:00.534Z,51.291153
2023-04-14T09:17:00.604Z,51.291183
2023-04-14T09:18:00.517Z,51.291187
2023-04-14T09:19:07.406Z,51.291401
2023-04-14T09:20:35.251Z,51.291344
2023-04-14T09:21:30.470Z,51.291260
2023-04-14T09:22:01.501Z,51.291195
2023-04-14T09:23:00.448Z,51.291210
2023-04-14T09:24:00.582Z,51.291325
2023-04-14T09:25:00.431Z,51.291161
2023-04-14T09:26:00.448Z,51.291176
2023-04-14T09:27:00.466Z,51.291214
2023-04-14T09:28:00.440Z,51.291336
2023-04-14T09:29:00.612Z,51.291325
2023-04-14T09:30:00.378Z,51.291229
2023-04-14T09:31:00.377Z,51.291191
2023-04-14T09:32:00.368Z,51.291260
2023-04-14T09:33:00.457Z,51.291302
2023-04-14T09:34:00.607Z,51.291241
2023-04-14T09:35:00.340Z,51.291286
2023-04-14T09:36:00.304Z,51.291527
2023-04-14T09:37:00.290Z,51.291424
2023-04-14T09:38:00.397Z,51.291180
2023-04-14T09:39:00.267Z,51.291096
2023-04-14T09:40:00.257Z,51.291168
2023-04-14T09:41:00.254Z,51.291214
2023-04-14T09:42:00.240Z,51.291157
2023-04-14T09:43:00.216Z,51.291157
2023-04-14T09:44:00.501Z,51.291225
2023-04-14T09:45:00.204Z,51.291210
2023-04-14T09:46:00.208Z,51.291164
2023-04-14T09:47:00.188Z,51.291363
2023-04-14T09:48:00.237Z,51.291199
2023-04-14T09:49:00.994Z,51.291180
2023-04-14T09:50:00.184Z,51.291069
2023-04-14T09:51:00.149Z,51.291149
2023-04-14T09:52:00.147Z,51.291210
2023-04-14T09:53:00.126Z,51.291336
2023-04-14T09:54:00.592Z,51.291336
2023-04-14T09:55:00.096Z,51.291355
2023-04-14T09:56:00.143Z,51.291145
2023-04-14T09:57:00.093Z,51.291214
2023-04-14T09:58:00.416Z,51.291256
2023-04-14T09:59:00.473Z,51.291267
2023-04-14T10:00:00.094Z,51.291290
2023-04-14T10:01:00.030Z,51.291279
2023-04-14T10:02:00.173Z,51.291256
2023-04-14T10:03:00.047Z,51.291260
2023-04-14T10:03:59.981Z,51.291279
2023-04-14T10:05:00.039Z,51.291313
2023-04-14T10:05:59.975Z,51.291275
2023-04-14T10:06:59.958Z,51.291199
2023-04-14T10:07:59.958Z,51.291214
2023-04-14T10:09:00.202Z,51.291191
2023-04-14T10:09:59.984Z,51.291191
2023-04-14T10:10:59.931Z,51.291237
2023-04-14T10:11:59.902Z,51.291153
2023-04-14T10:12:59.918Z,51.291195
2023-04-14T10:13:59.887Z,51.291199
2023-04-14T10:14:59.867Z,51.291164
2023-04-14T10:15:59.949Z,51.291210
2023-04-14T10:16:59.870Z,51.291119
2023-04-14T10:17:59.862Z,51.291203
2023-04-14T10:19:00.298Z,51.291126
2023-04-14T10:19:59.832Z,51.291168
2023-04-14T10:20:59.839Z,51.291080
2023-04-14T10:21:59.803Z,51.291054
2023-04-14T10:22:59.836Z,51.291042
2023-04-14T10:23:59.771Z,51.291260
2023-04-14T10:24:59.766Z,51.291206
2023-04-14T10:25:59.801Z,51.291447
2023-04-14T10:26:59.771Z,51.291134
2023-04-14T10:27:59.733Z,51.291073
2023-04-14T10:28:59.841Z,51.291248
2023-04-14T10:29:59.718Z,51.291130
2023-04-14T10:30:59.718Z,51.291031
2023-04-14T10:31:59.796Z,51.291245
2023-04-14T10:32:59.730Z,51.291161
2023-04-14T10:33:59.684Z,51.291107
2023-04-14T10:34:59.678Z,51.291046
2023-04-14T10:35:59.665Z,51.291157
2023-04-14T10:36:59.690Z,51.291176
2023-04-14T10:37:59.640Z,51.291161
2023-04-14T10:38:59.919Z,51.291122
2023-04-14T10:39:59.605Z,51.291195
2023-04-14T10:40:59.611Z,51.291267
2023-04-14T10:41:59.632Z,51.291290
2023-04-14T10:42:59.577Z,51.291286
2023-04-14T10:44:00.292Z,51.291355
2023-04-14T10:44:59.569Z,51.291435
2023-04-14T10:45:59.554Z,51.291313
2023-04-14T10:46:59.662Z,51.291382
2023-04-14T10:47:59.593Z,51.291229
2023-04-14T10:48:59.907Z,51.291031
2023-04-14T10:49:59.586Z,51.291145
2023-04-14T10:50:59.507Z,51.291119
2023-04-14T10:51:59.483Z,51.290981
2023-04-14T10:53:00.153Z,51.290871
2023-04-14T10:53:59.471Z,51.291096
2023-04-14T10:54:59.473Z,51.291233
2023-04-14T10:55:59.431Z,51.291260
2023-04-14T10:56:59.433Z,51.291332
2023-04-14T10:57:59.468Z,51.291245
2023-04-14T10:58:59.512Z,51.291359
2023-04-14T10:59:59.558Z,51.291492
2023-04-14T11:00:59.397Z,51.291290
2023-04-14T11:01:59.488Z,51.291069
2023-04-14T11:02:59.544Z,51.291107
2023-04-14T11:03:59.446Z,51.291576
2023-04-14T11:04:59.363Z,51.291485
2023-04-14T11:05:59.325Z,51.291553
2023-04-14T11:06:59.315Z,51.291260
2023-04-14T11:08:02.384Z,51.291237
2023-04-14T11:09:00.581Z,51.291122
2023-04-14T11:09:59.289Z,51.291325
2023-04-14T11:10:59.350Z,51.291500
2023-04-14T11:11:59.252Z,51.291332
2023-04-14T11:12:59.263Z,51.291538
2023-04-14T11:13:59.256Z,51.291466
2023-04-14T11:14:59.248Z,51.291405
2023-04-14T11:15:59.220Z,51.291325
2023-04-14T11:17:03.439Z,51.291397
2023-04-14T11:18:00.226Z,51.291405
2023-04-14T11:18:59.219Z,51.291245
2023-04-14T11:19:59.184Z,51.291321
2023-04-14T11:20:59.205Z,51.291393
2023-04-14T11:21:59.158Z,51.291351
2023-04-14T11:22:59.133Z,51.291466
2023-04-14T11:23:59.145Z,51.291458
2023-04-14T11:24:59.172Z,51.291492
2023-04-14T11:25:59.102Z,51.291260
2023-04-14T11:26:59.088Z,51.291367
2023-04-14T11:27:59.081Z,51.291344
2023-04-14T11:28:59.231Z,51.291302
2023-04-14T11:29:59.088Z,51.291306
2023-04-14T11:30:59.110Z,51.291199
2023-04-14T11:31:59.064Z,51.291142
2023-04-14T11:32:59.104Z,51.291298
2023-04-14T11:33:59.050Z,51.291294
2023-04-14T11:34:59.016Z,51.291241
2023-04-14T11:35:59.039Z,51.291126
2023-04-14T11:36:58.985Z,51.290932
2023-04-14T11:37:58.955Z,51.290794
2023-04-14T11:38:59.080Z,51.290993
2023-04-14T11:39:58.963Z,51.291252
2023-04-14T11:40:58.974Z,51.291187
2023-04-14T11:41:58.922Z,51.291237
2023-04-14T11:42:58.922Z,51.291283
2023-04-14T11:43:58.896Z,51.291264
2023-04-14T11:44:58.901Z,51.291237
2023-04-14T11:45:58.919Z,51.291142
2023-04-14T11:46:58.893Z,51.291302
2023-04-14T11:47:58.977Z,51.291218
2023-04-14T11:48:58.943Z,51.291332
2023-04-14T11:49:58.841Z,51.291233
2023-04-14T11:50:58.826Z,51.291264
2023-04-14T11:51:58.861Z,51.291306
2023-04-14T11:52:58.817Z,51.291252
2023-04-14T11:53:58.867Z,51.291241
2023-04-14T11:54:58.785Z,51.291210
2023-04-14T11:55:58.804Z,51.291351
2023-04-14T11:56:58.804Z,51.291214
2023-04-14T11:57:58.781Z,51.291161
2023-04-14T11:58:58.778Z,51.290962
2023-04-14T11:59:58.728Z,51.291176
2023-04-14T12:00:58.734Z,51.291103
2023-04-14T12:01:58.818Z,51.291073
2023-04-14T12:02:58.896Z,51.291149
2023-04-14T12:03:58.913Z,51.291336
2023-04-14T12:04:58.826Z,51.291107
2023-04-14T12:05:58.662Z,51.291157
2023-04-14T12:06:58.661Z,51.291286
2023-04-14T12:07:58.666Z,51.291225
2023-04-14T12:08:58.630Z,51.291195
2023-04-14T12:09:58.730Z,51.291119
2023-04-14T12:10:58.626Z,51.291031
2023-04-14T12:11:58.605Z,51.291107
2023-04-14T12:12:58.635Z,51.291210
2023-04-14T12:13:58.575Z,51.291161
2023-04-14T12:14:58.565Z,51.291142
2023-04-14T12:15:58.655Z,51.291206
2023-04-14T12:16:58.544Z,51.291267
2023-04-14T12:17:58.596Z,51.291229
2023-04-14T12:18:58.558Z,51.291138
2023-04-14T12:19:58.514Z,51.291199
2023-04-14T12:20:58.515Z,51.291210
2023-04-14T12:21:58.490Z,51.291245
2023-04-14T12:22:58.505Z,51.291164
2023-04-14T12:23:58.507Z,51.291264
2023-04-14T12:24:58.465Z,51.291183
2023-04-14T12:25:58.441Z,51.291069
2023-04-14T12:26:58.442Z,51.291073
2023-04-14T12:27:58.457Z,51.291122
2023-04-14T12:28:58.467Z,51.291138
2023-04-14T12:29:58.406Z,51.291260
2023-04-14T12:30:58.399Z,51.291309
2023-04-14T12:31:58.433Z,51.291172
2023-04-14T12:32:58.408Z,51.291267
2023-04-14T12:33:58.381Z,51.291210
2023-04-14T12:34:58.408Z,51.291256
2023-04-14T12:35:58.350Z,51.291119
2023-04-14T12:36:58.341Z,51.291065
2023-04-14T12:37:58.308Z,51.291134
2023-04-14T12:38:58.303Z,51.291019
2023-04-14T12:39:58.394Z,51.291092
2023-04-14T12:40:58.285Z,51.291157
2023-04-14T12:41:58.265Z,51.291172
2023-04-14T12:42:58.401Z,51.291164
2023-04-14T12:43:58.272Z,51.291180
2023-04-14T12:44:58.231Z,51.291267
2023-04-14T12:45:58.292Z,51.291187
2023-04-14T12:46:58.234Z,51.291145
2023-04-14T12:47:58.242Z,51.291256
2023-04-14T12:48:58.177Z,51.291248
2023-04-14T12:49:58.172Z,51.291290
2023-04-14T12:50:58.196Z,51.291214
2023-04-14T12:51:58.224Z,51.291142
2023-04-14T12:52:58.133Z,51.291294
2023-04-14T12:53:58.121Z,51.291233
2023-04-14T12:54:58.113Z,51.291153
2023-04-14T12:55:58.131Z,51.291168
2023-04-14T12:56:58.084Z,51.291187
2023-04-14T12:57:58.140Z,51.291122
2023-04-14T12:58:58.049Z,51.291153
2023-04-14T12:59:58.036Z,51.291229
2023-04-14T13:00:58.051Z,51.291183
2023-04-14T13:01:58.180Z,51.291218
2023-04-14T13:02:58.171Z,51.291378
2023-04-14T13:03:59.097Z,51.291447
2023-04-14T13:04:57.974Z,51.291775
2023-04-14T13:05:57.958Z,51.291550
2023-04-14T13:06:57.966Z,51.291481
2023-04-14T13:07:57.935Z,51.291325
2023-04-14T13:08:57.930Z,51.291443
2023-04-14T13:09:57.918Z,51.291489
2023-04-14T13:10:57.890Z,51.291225
2023-04-14T13:11:57.917Z,51.291145
2023-04-14T13:12:57.872Z,51.291153
2023-04-14T13:13:57.887Z,51.291222
2023-04-14T13:14:57.848Z,51.291260
2023-04-14T13:16:13.978Z,51.291210
2023-04-14T13:16:57.860Z,51.291206
2023-04-14T13:17:57.856Z,51.291241
2023-04-14T13:18:57.803Z,51.291237
2023-04-14T13:19:57.802Z,51.291229
2023-04-14T13:20:57.796Z,51.291218
2023-04-14T13:21:57.806Z,51.291245
2023-04-14T13:22:57.770Z,51.291279
2023-04-14T13:23:57.753Z,51.291206
2023-04-14T13:24:57.732Z,51.291164
2023-04-14T13:25:57.739Z,51.291252
2023-04-14T13:26:57.711Z,51.291153
2023-04-14T13:27:57.746Z,51.291134
2023-04-14T13:28:57.689Z,51.291180
2023-04-14T13:29:57.674Z,51.291195
2023-04-14T13:30:57.677Z,51.291164
2023-04-14T13:31:57.686Z,51.291191
2023-04-14T13:32:57.757Z,51.291267
2023-04-14T13:33:57.851Z,51.291393
2023-04-14T13:34:57.648Z,51.291416
2023-04-14T13:35:57.610Z,51.291328
2023-04-14T13:36:57.590Z,51.291176
2023-04-14T13:37:58.105Z,51.291172
2023-04-14T13:38:57.585Z,51.291122
2023-04-14T13:39:57.556Z,51.291161
2023-04-14T13:40:57.561Z,51.291119
2023-04-14T13:41:57.537Z,51.291161
2023-04-14T13:42:57.535Z,51.291203
2023-04-14T13:43:57.580Z,51.291225
2023-04-14T13:44:57.507Z,51.291283
2023-04-14T13:45:57.524Z,51.291290
2023-04-14T13:46:57.919Z,51.291245
2023-04-14T13:47:57.495Z,51.291206
2023-04-14T13:48:57.640Z,51.291229
2023-04-14T13:49:57.466Z,51.291164
2023-04-14T13:50:57.448Z,51.291157
2023-04-14T13:51:57.434Z,51.291180
2023-04-14T13:52:57.428Z,51.291191
2023-04-14T13:53:57.411Z,51.291218
2023-04-14T13:54:57.442Z,51.291248
2023-04-14T13:55:57.386Z,51.291264
2023-04-14T13:56:57.442Z,51.291168
2023-04-14T13:57:57.364Z,51.291145
2023-04-14T13:58:57.343Z,51.291149
2023-04-14T13:59:57.393Z,51.291195
2023-04-14T14:00:57.367Z,51.291206
2023-04-14T14:01:57.502Z,51.291142
2023-04-14T14:02:57.451Z,51.291115
2023-04-14T14:03:57.473Z,51.291119
2023-04-14T14:04:57.288Z,51.291172
2023-04-14T14:05:57.291Z,51.291237
2023-04-14T14:06:57.260Z,51.291229
2023-04-14T14:07:57.263Z,51.291222
2023-04-14T14:08:57.229Z,51.291157
2023-04-14T14:09:57.234Z,51.291183
2023-04-14T14:10:57.271Z,51.291245
2023-04-14T14:11:57.205Z,51.291187
2023-04-14T14:12:57.190Z,51.291191
2023-04-14T14:13:57.189Z,51.291119
2023-04-14T14:14:57.170Z,51.291176
2023-04-14T14:15:57.190Z,51.291142
2023-04-14T14:16:57.171Z,51.291145
2023-04-14T14:17:57.172Z,51.291271
2023-04-14T14:18:57.123Z,51.291218
2023-04-14T14:19:57.125Z,51.291130
2023-04-14T14:20:57.111Z,51.290977
2023-04-14T14:21:57.130Z,51.291019
2023-04-14T14:22:57.089Z,51.291138
2023-04-14T14:23:57.068Z,51.291073
2023-04-14T14:25:10.688Z,51.291195
2023-04-14T14:25:58.057Z,51.291157
2023-04-14T14:26:57.075Z,51.291107
2023-04-14T14:27:57.024Z,51.291058
2023-04-14T14:28:57.161Z,51.291142
2023-04-14T14:29:57.001Z,51.291283
2023-04-14T14:30:57.029Z,51.291260
2023-04-14T14:31:57.142Z,51.291325
2023-04-14T14:32:57.828Z,51.291161
2023-04-14T14:33:56.956Z,51.291214
2023-04-14T14:34:56.945Z,51.291195
2023-04-14T14:35:56.926Z,51.291214
2023-04-14T14:36:56.940Z,51.291183
2023-04-14T14:37:58.071Z,51.291203
2023-04-14T14:38:56.906Z,51.291229
2023-04-14T14:39:56.893Z,51.291214
2023-04-14T14:40:56.900Z,51.291229
2023-04-14T14:41:57.612Z,51.291222
2023-04-14T14:42:56.849Z,51.291031
2023-04-14T14:43:57.503Z,51.291180
2023-04-14T14:44:56.837Z,51.291168
2023-04-14T14:45:56.832Z,51.291225
2023-04-14T14:46:56.869Z,51.291191
2023-04-14T14:47:56.902Z,51.291176
2023-04-14T14:48:56.850Z,51.291191
2023-04-14T14:50:00.683Z,51.291225
2023-04-14T14:50:58.765Z,51.291176
2023-04-14T14:51:56.754Z,51.291245
2023-04-14T14:52:56.741Z,51.291405
2023-04-14T14:54:08.356Z,51.291317
2023-04-14T14:54:57.683Z,51.291294
2023-04-14T14:55:56.676Z,51.291218
2023-04-14T14:56:56.661Z,51.291157
2023-04-14T14:57:56.632Z,51.291176
2023-04-14T14:58:56.633Z,51.291264
2023-04-14T14:59:56.654Z,51.291233
2023-04-14T15:00:56.616Z,51.291180
2023-04-14T15:01:56.654Z,51.291126
2023-04-14T15:02:56.675Z,51.291210
2023-04-14T15:03:56.670Z,51.291119
2023-04-14T15:04:56.596Z,51.291187
2023-04-14T15:05:56.557Z,51.291218
2023-04-14T15:06:56.541Z,51.291168
2023-04-14T15:07:56.526Z,51.291206
2023-04-14T15:08:56.527Z,51.291161
2023-04-14T15:09:56.536Z,51.291172
2023-04-14T15:10:56.539Z,51.291222
2023-04-14T15:11:56.540Z,51.291233
2023-04-14T15:12:56.503Z,51.291283
2023-04-14T15:13:56.506Z,51.291267
2023-04-14T15:14:56.501Z,51.291222
2023-04-14T15:15:56.564Z,51.291245
2023-04-14T15:16:56.469Z,51.291191
2023-04-14T15:17:56.482Z,51.291153
2023-04-14T15:18:56.451Z,51.291149
2023-04-14T15:19:56.466Z,51.291138
2023-04-14T15:20:56.441Z,51.291214
2023-04-14T15:21:56.461Z,51.291283
2023-04-14T15:22:56.421Z,51.291237
2023-04-14T15:23:56.412Z,51.291080
2023-04-14T15:24:56.400Z,51.291142
2023-04-14T15:25:56.386Z,51.291172
2023-04-14T15:26:56.400Z,51.291168
2023-04-14T15:27:56.365Z,51.291260
2023-04-14T15:28:56.365Z,51.291344
2023-04-14T15:29:56.345Z,51.291309
2023-04-14T15:30:56.330Z,51.291206
2023-04-14T15:31:56.418Z,51.291161
2023-04-14T15:32:56.350Z,51.291245
2023-04-14T15:33:56.301Z,51.291164
2023-04-14T15:34:56.319Z,51.291241
2023-04-14T15:35:56.296Z,51.291176
2023-04-14T15:36:56.306Z,51.291023
2023-04-14T15:37:56.305Z,51.291283
2023-04-14T15:38:56.278Z,51.291264
2023-04-14T15:39:56.273Z,51.291103
2023-04-14T15:40:56.220Z,51.291130
2023-04-14T15:41:56.214Z,51.291340
2023-04-14T15:42:56.237Z,51.291237
2023-04-14T15:43:56.193Z,51.291203
2023-04-14T15:44:56.176Z,51.291378
2023-04-14T15:45:56.307Z,51.291351
2023-04-14T15:46:56.168Z,51.291229
2023-04-14T15:47:56.350Z,51.291172
2023-04-14T15:48:56.309Z,51.291218
2023-04-14T15:50:09.040Z,51.291176
2023-04-14T15:50:56.131Z,51.291161
2023-04-14T15:51:56.121Z,51.291161
2023-04-14T15:52:56.203Z,51.291359
2023-04-14T15:53:56.094Z,51.291206
2023-04-14T15:54:56.165Z,51.291191
2023-04-14T15:55:56.078Z,51.291340
2023-04-14T15:56:56.068Z,51.291451
2023-04-14T15:57:56.058Z,51.291340
2023-04-14T15:58:56.057Z,51.291298
2023-04-14T15:59:56.036Z,51.291248
2023-04-14T16:00:56.066Z,51.291172
2023-04-14T16:01:56.042Z,51.291176
2023-04-14T16:02:59.121Z,51.291233
2023-04-14T16:03:56.095Z,51.291199